createdAt,value
2018-10-12T00:01:59.800Z,24.45
2018-10-12T00:04:27.852Z,24.43
2018-10-12T00:06:55.885Z,24.60
2018-10-12T00:09:23.908Z,25.60
2018-10-12T00:11:51.945Z,24.75
2018-10-12T00:14:19.977Z,25.23
2018-10-12T00:16:48.025Z,24.63
2018-10-12T00:19:16.065Z,24.55
2018-10-12T00:21:44.121Z,25.00
2018-10-12T00:24:12.140Z,25.43
2018-10-12T00:26:40.190Z,24.98
2018-10-12T00:29:08.239Z,25.57
2018-10-12T00:31:36.273Z,25.62
2018-10-12T00:34:04.320Z,25.50
2018-10-12T00:36:32.360Z,24.80
2018-10-12T00:39:00.432Z,24.70
2018-10-12T00:41:28.472Z,23.85
2018-10-12T00:43:56.524Z,24.37
2018-10-12T00:46:24.561Z,25.05
2018-10-12T00:48:52.600Z,23.55
2018-10-12T00:51:20.653Z,25.32
2018-10-12T00:53:48.709Z,24.45
2018-10-12T00:56:16.750Z,24.75
2018-10-12T00:58:44.784Z,23.73
2018-10-12T01:01:12.828Z,24.02
2018-10-12T01:03:40.876Z,25.15
2018-10-12T01:06:08.916Z,24.77
2018-10-12T01:08:36.975Z,23.98
2018-10-12T01:11:05.021Z,24.15
2018-10-12T01:13:33.052Z,24.47
2018-10-12T01:16:01.092Z,24.60
2018-10-12T01:18:29.183Z,24.02
2018-10-12T01:20:57.240Z,24.35
2018-10-12T01:23:25.284Z,23.90
2018-10-12T01:25:53.334Z,24.80
2018-10-12T01:28:21.381Z,25.20
2018-10-12T01:30:49.445Z,27.62
2018-10-12T01:33:17.468Z,27.93
2018-10-12T01:35:45.521Z,26.87
2018-10-12T01:38:13.581Z,25.55
2018-10-12T01:40:41.633Z,24.80
2018-10-12T01:43:09.666Z,26.60
2018-10-12T01:45:37.699Z,24.27
2018-10-12T01:48:05.928Z,24.60
2018-10-12T01:50:33.948Z,24.12
2018-10-12T01:53:02.008Z,24.90
2018-10-12T01:55:30.032Z,24.15
2018-10-12T01:57:58.080Z,23.95
2018-10-12T02:00:26.117Z,22.90
2018-10-12T02:02:54.149Z,23.80
2018-10-12T02:05:22.196Z,24.10
2018-10-12T02:07:50.257Z,23.65
2018-10-12T02:10:18.280Z,24.37
2018-10-12T02:12:46.316Z,23.25
2018-10-12T02:15:14.373Z,24.07
2018-10-12T02:17:42.420Z,23.87
2018-10-12T02:20:10.816Z,23.83
2018-10-12T02:22:38.884Z,23.73
2018-10-12T02:25:07.264Z,24.33
2018-10-12T02:27:35.441Z,24.52
2018-10-12T02:30:03.841Z,25.10
2018-10-12T02:32:31.905Z,23.70
2018-10-12T02:34:59.969Z,23.77
2018-10-12T02:37:28.128Z,24.00
2018-10-12T02:39:56.312Z,23.83
2018-10-12T02:42:24.349Z,24.80
2018-10-12T02:44:52.371Z,24.67
2018-10-12T02:47:20.421Z,26.75
2018-10-12T02:49:48.482Z,25.92
2018-10-12T02:52:16.522Z,25.40
2018-10-12T02:54:44.552Z,25.62
2018-10-12T02:57:12.597Z,26.33
2018-10-12T02:59:40.621Z,25.62
2018-10-12T03:02:08.645Z,26.55
2018-10-12T03:04:36.689Z,26.42
2018-10-12T03:07:05.002Z,26.17
2018-10-12T03:09:33.024Z,25.92
2018-10-12T03:12:01.069Z,26.55
2018-10-12T03:14:29.110Z,26.77
2018-10-12T03:16:57.137Z,26.48
2018-10-12T03:19:25.179Z,27.20
2018-10-12T03:21:53.229Z,26.02
2018-10-12T03:24:21.264Z,25.63
2018-10-12T03:26:49.288Z,26.35
2018-10-12T03:29:17.336Z,26.37
2018-10-12T03:31:45.369Z,26.70
2018-10-12T03:34:13.430Z,26.60
2018-10-12T03:36:41.468Z,26.75
2018-10-12T03:39:09.600Z,26.30
2018-10-12T03:41:37.624Z,28.12
2018-10-12T03:44:05.665Z,26.65
2018-10-12T03:46:33.713Z,26.65
2018-10-12T03:49:01.885Z,25.37
2018-10-12T03:51:29.908Z,25.92
2018-10-12T03:53:57.957Z,26.17
2018-10-12T03:56:26.009Z,26.80
2018-10-12T03:58:54.057Z,28.00
2018-10-12T04:01:22.101Z,27.48
2018-10-12T04:03:50.162Z,26.77
2018-10-12T04:06:18.205Z,27.25
2018-10-12T04:08:46.240Z,26.17
2018-10-12T04:11:14.289Z,25.80
2018-10-12T04:13:42.325Z,25.32
2018-10-12T04:16:10.360Z,25.80
2018-10-12T04:18:38.384Z,25.48
2018-10-12T04:21:06.452Z,25.57
2018-10-12T04:23:34.489Z,26.93
2018-10-12T04:26:02.526Z,26.07
2018-10-12T04:28:30.581Z,26.15
2018-10-12T04:30:58.620Z,25.85
2018-10-12T04:33:26.844Z,25.85
2018-10-12T04:35:54.936Z,26.35
2018-10-12T04:38:22.994Z,26.27
2018-10-12T04:40:59.057Z,26.70
2018-10-12T04:43:27.437Z,27.65
2018-10-12T04:45:55.473Z,27.87
2018-10-12T04:48:23.528Z,29.10
2018-10-12T04:50:51.586Z,30.10
2018-10-12T04:53:19.636Z,27.32
2018-10-12T04:55:47.693Z,24.52
2018-10-12T04:58:15.736Z,25.75
2018-10-12T05:00:43.793Z,24.73
2018-10-12T05:03:11.809Z,24.70
2018-10-12T05:05:40.065Z,26.73
2018-10-12T05:08:08.120Z,26.67
2018-10-12T05:10:36.173Z,24.57
2018-10-12T05:13:04.226Z,24.02
2018-10-12T05:15:32.284Z,25.77
2018-10-12T05:18:00.345Z,25.10
2018-10-12T05:20:28.396Z,24.60
2018-10-12T05:22:56.440Z,24.30
2018-10-12T05:25:24.484Z,25.10
2018-10-12T05:27:52.517Z,25.15
2018-10-12T05:30:20.673Z,25.70
2018-10-12T05:32:48.628Z,25.12
2018-10-12T05:35:16.690Z,25.63
2018-10-12T05:37:44.896Z,26.73
2018-10-12T05:40:12.940Z,26.45
2018-10-12T05:42:41.050Z,26.67
2018-10-12T05:45:09.060Z,27.40
2018-10-12T05:47:37.144Z,28.00
2018-10-12T05:50:06.883Z,27.40
2018-10-12T05:52:35.129Z,27.25
2018-10-12T05:55:03.542Z,27.58
2018-10-12T05:57:33.440Z,28.00
2018-10-12T06:00:01.618Z,26.50
2018-10-12T06:02:29.693Z,27.22
2018-10-12T06:04:57.748Z,26.40
2018-10-12T06:07:25.813Z,25.93
2018-10-12T06:09:54.133Z,26.80
2018-10-12T06:12:22.057Z,25.57
2018-10-12T06:14:50.255Z,26.87
2018-10-12T06:17:18.295Z,27.95
2018-10-12T06:19:46.377Z,27.67
2018-10-12T06:22:14.427Z,29.30
2018-10-12T06:24:42.636Z,27.65
2018-10-12T06:27:10.698Z,27.75
2018-10-12T06:29:38.757Z,28.38
2018-10-12T06:32:06.840Z,26.52
2018-10-12T06:34:34.884Z,26.80
2018-10-12T06:37:02.964Z,27.60
2018-10-12T06:39:31.000Z,28.15
2018-10-12T06:41:59.051Z,27.80
2018-10-12T06:44:27.076Z,27.48
2018-10-12T06:46:55.136Z,26.33
2018-10-12T06:49:23.206Z,25.35
2018-10-12T06:51:51.248Z,26.70
2018-10-12T06:54:19.300Z,25.92
2018-10-12T06:56:47.961Z,26.55
2018-10-12T06:59:16.061Z,24.95
2018-10-12T07:01:44.113Z,24.82
2018-10-12T07:04:12.221Z,26.52
2018-10-12T07:06:40.290Z,25.68
2018-10-12T07:09:10.568Z,25.70
2018-10-12T07:11:38.781Z,24.85
2018-10-12T07:14:07.411Z,25.20
2018-10-12T07:16:34.940Z,25.80
2018-10-12T07:19:02.985Z,24.60
2018-10-12T07:21:31.412Z,24.45
2018-10-12T07:23:59.441Z,23.87
2018-10-12T07:26:27.480Z,24.50
2018-10-12T07:28:55.513Z,24.35
2018-10-12T07:31:23.600Z,23.75
2018-10-12T07:33:51.564Z,24.20
2018-10-12T07:36:19.644Z,24.13
2018-10-12T07:38:47.681Z,24.80
2018-10-12T07:41:15.741Z,24.98
2018-10-12T07:43:43.789Z,24.23
2018-10-12T07:46:11.816Z,26.40
2018-10-12T07:48:39.861Z,25.40
2018-10-12T07:51:07.889Z,23.85
2018-10-12T07:53:36.209Z,24.05
2018-10-12T07:56:04.751Z,24.77
2018-10-12T07:58:32.834Z,23.95
2018-10-12T08:01:00.841Z,23.57
2018-10-12T08:03:28.871Z,23.10
2018-10-12T08:05:56.900Z,22.10
2018-10-12T08:08:24.953Z,23.80
2018-10-12T08:10:53.010Z,23.55
2018-10-12T08:13:21.037Z,22.90
2018-10-12T08:15:50.153Z,23.40
2018-10-12T08:18:18.187Z,23.83
2018-10-12T08:20:46.304Z,22.35
2018-10-12T08:23:14.401Z,22.90
2018-10-12T08:25:42.432Z,24.80
2018-10-12T08:28:10.524Z,23.30
2018-10-12T08:30:42.696Z,23.75
2018-10-12T08:33:10.777Z,25.57
2018-10-12T08:35:38.876Z,23.18
2018-10-12T08:38:07.045Z,23.43
2018-10-12T08:40:35.090Z,22.75
2018-10-12T08:43:03.157Z,24.77
2018-10-12T08:45:31.470Z,25.00
2018-10-12T08:47:59.513Z,24.43
2018-10-12T08:50:27.541Z,23.40
2018-10-12T08:52:55.645Z,24.27
2018-10-12T08:55:23.878Z,22.87
2018-10-12T08:57:51.921Z,24.03
2018-10-12T09:00:19.972Z,24.77
2018-10-12T09:02:48.062Z,23.40
2018-10-12T09:05:16.090Z,23.18
2018-10-12T09:07:44.141Z,23.90
2018-10-12T09:10:12.177Z,25.10
2018-10-12T09:12:40.213Z,22.95
2018-10-12T09:15:08.258Z,22.17
2018-10-12T09:17:36.613Z,18.55
2018-10-12T09:20:04.859Z,16.65
2018-10-12T09:22:32.897Z,16.00
2018-10-12T09:25:00.945Z,14.55
2018-10-12T09:27:29.038Z,13.10
2018-10-12T09:29:57.948Z,13.75
2018-10-12T09:32:25.977Z,13.60
2018-10-12T09:34:54.016Z,12.88
2018-10-12T09:37:22.072Z,12.40
2018-10-12T09:39:50.166Z,13.80
2018-10-12T09:42:18.209Z,13.43
2018-10-12T09:44:46.246Z,11.43
2018-10-12T09:47:14.269Z,12.00
2018-10-12T09:49:42.309Z,12.60
2018-10-12T09:52:10.348Z,10.83
2018-10-12T09:54:38.449Z,11.08
2018-10-12T09:57:11.857Z,11.30
2018-10-12T09:59:39.899Z,11.35
2018-10-12T10:02:13.688Z,10.75
2018-10-12T10:04:41.689Z,10.30
2018-10-12T10:07:09.716Z,11.43
2018-10-12T10:09:37.752Z,13.60
2018-10-12T10:12:05.837Z,10.35
2018-10-12T10:14:33.861Z,10.43
2018-10-12T10:17:01.888Z,9.87
2018-10-12T10:19:29.996Z,10.30
2018-10-12T10:21:58.025Z,10.53
2018-10-12T10:24:26.052Z,11.30
2018-10-12T10:26:54.098Z,11.90
2018-10-12T10:29:22.184Z,9.40
2018-10-12T10:31:50.157Z,11.85
2018-10-12T10:34:18.201Z,9.45
2018-10-12T10:36:46.242Z,10.25
2018-10-12T10:39:14.426Z,9.20
2018-10-12T10:41:42.432Z,9.53
2018-10-12T10:44:10.469Z,10.70
2018-10-12T10:46:38.541Z,11.35
2018-10-12T10:49:06.585Z,10.45
2018-10-12T10:51:34.617Z,13.58
2018-10-12T10:54:02.669Z,17.07
2018-10-12T10:56:30.710Z,29.60
2018-10-12T10:58:58.761Z,20.90
2018-10-12T11:01:26.816Z,9.50
2018-10-12T11:03:54.865Z,20.65
2018-10-12T11:06:22.984Z,17.32
2018-10-12T11:08:50.969Z,25.17
2018-10-12T11:11:19.022Z,20.15
2018-10-12T11:13:47.157Z,12.65
2018-10-12T11:16:15.168Z,9.43
2018-10-12T11:18:43.200Z,11.78
2018-10-12T11:21:11.249Z,13.20
2018-10-12T11:23:39.281Z,14.68
2018-10-12T11:26:07.457Z,11.90
2018-10-12T11:28:35.496Z,8.45
2018-10-12T11:31:03.540Z,9.90
2018-10-12T11:33:31.976Z,9.90
2018-10-12T11:35:59.760Z,7.60
2018-10-12T11:38:27.818Z,8.20
2018-10-12T11:40:55.873Z,11.20
2018-10-12T11:43:29.897Z,8.90
2018-10-12T11:45:58.665Z,7.17
2018-10-12T11:48:26.692Z,8.80
2018-10-12T11:50:54.723Z,7.20
2018-10-12T11:53:22.772Z,7.30
2018-10-12T11:55:50.799Z,7.60
2018-10-12T11:58:19.080Z,6.87
2018-10-12T12:00:47.108Z,8.35
2018-10-12T12:03:15.121Z,7.53
2018-10-12T12:05:43.144Z,9.25
2018-10-12T12:08:11.307Z,6.55
2018-10-12T12:10:39.955Z,5.92
2018-10-12T12:13:08.165Z,6.25
2018-10-12T12:15:36.446Z,5.40
2018-10-12T12:18:04.476Z,7.28
2018-10-12T12:20:32.500Z,5.47
2018-10-12T12:23:00.549Z,5.30
2018-10-12T12:25:28.585Z,5.42
2018-10-12T12:27:56.616Z,6.28
2018-10-12T12:30:24.726Z,6.30
2018-10-12T12:32:52.748Z,5.50
2018-10-12T12:35:20.944Z,8.20
2018-10-12T12:37:48.807Z,6.83
2018-10-12T12:40:16.841Z,5.20
2018-10-12T12:42:44.865Z,7.00
2018-10-12T12:45:12.895Z,7.45
2018-10-12T12:47:41.035Z,5.45
2018-10-12T12:50:08.980Z,12.23
2018-10-12T12:52:37.100Z,5.30
2018-10-12T12:55:05.156Z,8.00
2018-10-12T12:57:33.192Z,7.70
2018-10-12T13:00:01.284Z,5.10
2018-10-12T13:02:29.270Z,4.58
2018-10-12T13:04:57.305Z,4.50
2018-10-12T13:07:25.343Z,6.78
2018-10-12T13:09:53.385Z,7.05
2018-10-12T13:12:21.412Z,6.25
2018-10-12T13:14:49.440Z,4.45
2018-10-12T13:17:17.481Z,6.30
2018-10-12T13:19:45.520Z,7.33
2018-10-12T13:22:13.609Z,5.03
2018-10-12T13:24:41.657Z,6.10
2018-10-12T13:27:09.701Z,5.28
2018-10-12T13:29:37.792Z,6.83
2018-10-12T13:32:06.131Z,6.47
2018-10-12T13:34:34.116Z,5.40
2018-10-12T13:37:02.161Z,5.70
2018-10-12T13:39:30.206Z,7.00
2018-10-12T13:41:58.257Z,6.33
2018-10-12T13:44:26.329Z,6.15
2018-10-12T13:46:54.389Z,5.20
2018-10-12T13:49:22.439Z,5.90
2018-10-12T13:51:50.561Z,6.80
2018-10-12T13:54:18.665Z,7.28
2018-10-12T13:56:46.661Z,7.20
2018-10-12T13:59:14.717Z,7.40
2018-10-12T14:01:42.760Z,6.55
2018-10-12T14:04:10.802Z,6.40
2018-10-12T14:06:38.841Z,6.85
2018-10-12T14:09:06.904Z,6.87
2018-10-12T14:11:34.956Z,6.50
2018-10-12T14:14:03.092Z,6.55
2018-10-12T14:16:31.129Z,7.33
2018-10-12T14:18:59.373Z,6.12
2018-10-12T14:21:27.205Z,6.60
2018-10-12T14:23:55.877Z,5.67
2018-10-12T14:26:24.124Z,6.80
2018-10-12T14:28:52.161Z,5.60
2018-10-12T14:31:20.237Z,6.67
2018-10-12T14:33:48.277Z,6.83
2018-10-12T14:36:16.321Z,5.60
2018-10-12T14:38:44.389Z,5.40
2018-10-12T14:41:12.441Z,5.80
2018-10-12T14:43:40.575Z,5.60
2018-10-12T14:46:08.546Z,7.03
2018-10-12T14:48:36.592Z,7.47
2018-10-12T14:51:04.624Z,7.22
2018-10-12T14:53:32.818Z,6.20
2018-10-12T14:56:00.697Z,5.65
2018-10-12T14:58:28.748Z,5.70
2018-10-12T15:00:56.777Z,7.00
2018-10-12T15:03:24.889Z,9.58
2018-10-12T15:05:52.932Z,8.45
2018-10-12T15:08:21.007Z,7.90
2018-10-12T15:10:49.041Z,7.45
2018-10-12T15:13:17.153Z,5.80
2018-10-12T15:15:45.209Z,5.60
2018-10-12T15:18:13.245Z,6.60
2018-10-12T15:20:41.338Z,9.40
2018-10-12T15:23:09.321Z,10.32
2018-10-12T15:25:37.417Z,8.13
2018-10-12T15:28:05.396Z,9.95
2018-10-12T15:30:33.455Z,12.30
2018-10-12T15:33:01.500Z,13.13
2018-10-12T15:35:29.521Z,11.45
2018-10-12T15:37:57.556Z,10.18
2018-10-12T15:40:25.762Z,9.50
2018-10-12T15:42:53.892Z,6.37
2018-10-12T15:45:21.836Z,6.45
2018-10-12T15:47:49.900Z,7.05
2018-10-12T15:50:17.924Z,6.92
2018-10-12T15:52:45.980Z,8.85
2018-10-12T15:55:14.016Z,12.07
2018-10-12T15:57:42.048Z,11.93
2018-10-12T16:00:10.079Z,8.40
2018-10-12T16:02:38.105Z,8.40
2018-10-12T16:05:06.136Z,8.90
2018-10-12T16:07:34.254Z,10.57
2018-10-12T16:10:02.336Z,10.73
2018-10-12T16:12:30.374Z,9.50
2018-10-12T16:14:58.397Z,8.20
2018-10-12T16:17:26.433Z,10.03
2018-10-12T16:19:54.477Z,9.93
2018-10-12T16:22:22.528Z,12.25
2018-10-12T16:25:01.961Z,16.60
2018-10-12T16:27:30.012Z,17.00
2018-10-12T16:29:58.050Z,18.87
2018-10-12T16:32:26.091Z,17.67
2018-10-12T16:34:54.136Z,17.77
2018-10-12T16:37:22.180Z,17.40
2018-10-12T16:39:50.346Z,15.65
2018-10-12T16:42:18.380Z,15.90
2018-10-12T16:44:46.416Z,11.75
2018-10-12T16:47:14.555Z,25.88
2018-10-12T16:49:42.596Z,13.10
2018-10-12T16:52:10.649Z,9.00
2018-10-12T16:54:38.737Z,10.93
2018-10-12T16:57:06.796Z,9.30
2018-10-12T16:59:34.841Z,9.78
2018-10-12T17:02:02.900Z,9.68
2018-10-12T17:04:30.994Z,10.20
2018-10-12T17:06:59.017Z,11.50
2018-10-12T17:09:27.059Z,14.20
2018-10-12T17:11:55.092Z,10.28
2018-10-12T17:14:23.133Z,11.95
2018-10-12T17:16:51.362Z,9.88
2018-10-12T17:19:19.421Z,11.10
2018-10-12T17:21:47.501Z,13.32
2018-10-12T17:24:15.550Z,10.65
2018-10-12T17:26:43.589Z,10.58
2018-10-12T17:29:11.625Z,10.30
2018-10-12T17:31:39.668Z,11.57
2018-10-12T17:34:07.709Z,11.73
2018-10-12T17:36:35.761Z,15.37
2018-10-12T17:39:06.085Z,15.40
2018-10-12T17:41:34.122Z,15.55
2018-10-12T17:44:02.166Z,16.42
2018-10-12T17:46:30.229Z,16.15
2018-10-12T17:48:58.289Z,16.57
2018-10-12T17:51:26.349Z,16.57
2018-10-12T17:53:54.396Z,14.18
2018-10-12T17:56:22.443Z,20.20
2018-10-12T17:58:50.476Z,17.92
2018-10-12T18:01:18.512Z,20.63
2018-10-12T18:03:46.572Z,16.50
2018-10-12T18:06:14.602Z,19.37
2018-10-12T18:08:42.657Z,20.65
2018-10-12T18:11:10.688Z,21.10
2018-10-12T18:13:38.844Z,21.00
2018-10-12T18:16:06.950Z,18.37
2018-10-12T18:18:34.988Z,19.02
2018-10-12T18:21:03.102Z,19.00
2018-10-12T18:23:31.157Z,19.27
2018-10-12T18:25:59.286Z,18.02
2018-10-12T18:28:27.248Z,16.05
2018-10-12T18:30:55.297Z,14.87
2018-10-12T18:33:23.352Z,18.27
2018-10-12T18:35:51.417Z,17.07
2018-10-12T18:38:19.473Z,15.85
2018-10-12T18:40:47.521Z,18.65
2018-10-12T18:43:15.673Z,21.20
2018-10-12T18:45:43.681Z,16.60
2018-10-12T18:48:11.683Z,17.17
2018-10-12T18:50:39.792Z,16.87
2018-10-12T18:53:07.825Z,21.27
2018-10-12T18:55:35.861Z,21.70
2018-10-12T18:58:03.913Z,18.12
2018-10-12T19:00:31.976Z,16.73
2018-10-12T19:03:00.049Z,17.45
2018-10-12T19:05:28.092Z,16.97
2018-10-12T19:07:56.140Z,16.55
2018-10-12T19:10:24.192Z,17.00
2018-10-12T19:12:52.252Z,17.17
2018-10-12T19:15:20.461Z,15.48
2018-10-12T19:17:48.507Z,15.35
2018-10-12T19:20:16.569Z,15.72
2018-10-12T19:22:44.640Z,13.65
2018-10-12T19:25:12.746Z,12.43
2018-10-12T19:27:40.786Z,13.10
2018-10-12T19:30:08.841Z,13.30
2018-10-12T19:32:36.886Z,15.47
2018-10-12T19:35:04.993Z,17.20
2018-10-12T19:37:33.225Z,16.90
2018-10-12T19:40:01.300Z,16.10
2018-10-12T19:42:29.442Z,17.05
2018-10-12T19:44:57.601Z,16.30
2018-10-12T19:47:25.636Z,14.80
2018-10-12T19:49:53.688Z,17.25
2018-10-12T19:52:21.730Z,17.20
2018-10-12T19:54:49.793Z,15.43
2018-10-12T19:57:17.859Z,15.48
2018-10-12T19:59:45.908Z,14.75
2018-10-12T20:02:13.952Z,15.28
2018-10-12T20:04:42.000Z,16.90
2018-10-12T20:07:10.056Z,17.57
2018-10-12T20:09:38.080Z,18.12
2018-10-12T20:12:06.193Z,16.55
2018-10-12T20:14:34.252Z,16.02
2018-10-12T20:17:02.293Z,19.80
2018-10-12T20:19:30.328Z,17.17
2018-10-12T20:21:58.359Z,18.53
2018-10-12T20:24:26.405Z,21.65
2018-10-12T20:26:54.472Z,18.05
2018-10-12T20:29:22.545Z,16.93
2018-10-12T20:31:50.601Z,15.45
2018-10-12T20:34:18.652Z,14.78
2018-10-12T20:36:46.692Z,14.23
2018-10-12T20:39:14.780Z,14.60
2018-10-12T20:41:42.769Z,14.03
2018-10-12T20:44:10.814Z,12.60
2018-10-12T20:46:39.332Z,15.28
2018-10-12T20:49:07.380Z,15.18
2018-10-12T20:51:35.426Z,15.58
2018-10-12T20:54:03.453Z,15.80
2018-10-12T20:56:31.509Z,17.55
2018-10-12T20:58:59.576Z,14.15
2018-10-12T21:01:27.597Z,15.95
2018-10-12T21:03:55.663Z,15.00
2018-10-12T21:06:23.678Z,14.53
2018-10-12T21:08:51.703Z,14.55
2018-10-12T21:11:19.741Z,13.60
2018-10-12T21:13:47.780Z,13.93
2018-10-12T21:16:15.829Z,18.00
2018-10-12T21:18:43.871Z,17.73
2018-10-12T21:21:11.901Z,17.98
2018-10-12T21:23:39.953Z,18.70
2018-10-12T21:26:08.021Z,19.92
2018-10-12T21:28:36.057Z,22.82
2018-10-12T21:31:04.202Z,17.57
2018-10-12T21:33:32.276Z,16.02
2018-10-12T21:36:00.409Z,14.47
2018-10-12T21:38:28.501Z,15.20
2018-10-12T21:40:56.552Z,13.40
2018-10-12T21:43:24.627Z,14.60
2018-10-12T21:45:52.681Z,13.30
2018-10-12T21:48:20.741Z,12.35
2018-10-12T21:50:49.068Z,14.30
2018-10-12T21:53:17.189Z,13.90
2018-10-12T21:55:45.281Z,15.18
2018-10-12T21:58:13.429Z,14.40
2018-10-12T22:00:41.617Z,14.30
2018-10-12T22:03:09.693Z,14.75
2018-10-12T22:05:37.793Z,14.20
2018-10-12T22:08:05.876Z,14.78
2018-10-12T22:10:33.949Z,13.70
2018-10-12T22:13:02.084Z,12.30
2018-10-12T22:15:30.160Z,12.98
2018-10-12T22:17:58.318Z,12.20
2018-10-12T22:20:26.493Z,13.10
2018-10-12T22:22:54.548Z,12.45
2018-10-12T22:25:22.633Z,12.60
2018-10-12T22:27:50.713Z,11.90
2018-10-12T22:30:18.770Z,13.10
2018-10-12T22:32:46.816Z,13.30
2018-10-12T22:35:14.897Z,12.90
2018-10-12T22:37:42.969Z,13.10
2018-10-12T22:40:11.041Z,12.75
2018-10-12T22:42:39.119Z,12.88
2018-10-12T22:45:07.158Z,12.10
2018-10-12T22:47:35.189Z,12.15
2018-10-12T22:50:03.232Z,11.48
2018-10-12T22:52:31.285Z,12.50
2018-10-12T22:54:59.342Z,11.80
2018-10-12T22:57:27.388Z,11.65
2018-10-12T22:59:55.425Z,10.63
2018-10-12T23:02:23.471Z,11.00
2018-10-12T23:07:32.613Z,11.85
2018-10-12T23:10:00.686Z,11.35
2018-10-12T23:12:28.742Z,11.20
2018-10-12T23:14:56.773Z,10.32
2018-10-12T23:17:24.805Z,10.08
2018-10-12T23:19:52.856Z,10.43
2018-10-12T23:22:20.933Z,11.90
2018-10-12T23:24:48.970Z,11.22
2018-10-12T23:27:17.016Z,10.40
2018-10-12T23:29:45.053Z,11.08
2018-10-12T23:32:13.092Z,11.33
2018-10-12T23:34:41.147Z,10.40
2018-10-12T23:37:09.206Z,10.40
2018-10-12T23:39:37.571Z,11.95
2018-10-12T23:42:05.609Z,11.65
2018-10-12T23:44:33.648Z,11.35
2018-10-12T23:47:01.728Z,11.00
2018-10-12T23:49:29.768Z,10.80
2018-10-12T23:51:57.806Z,10.82
2018-10-12T23:54:25.853Z,11.30
2018-10-12T23:56:53.931Z,10.65
2018-10-12T23:59:21.968Z,11.20
